createdAt,value
2018-12-29T00:00:38.109Z,99842.48
2018-12-29T00:10:55.804Z,99844.85
2018-12-29T00:17:40.904Z,99842.09
2018-12-29T00:24:24.237Z,99848.08
2018-12-29T00:31:03.731Z,99851.77
2018-12-29T00:37:50.885Z,99850.67
2018-12-29T00:44:42.291Z,99849.69
2018-12-29T00:51:17.198Z,99836.37
2018-12-29T00:57:43.659Z,99821.59
2018-12-29T01:04:11.872Z,99832.61
2018-12-29T01:14:03.726Z,99819.11
2018-12-29T01:20:16.180Z,99818.75
2018-12-29T01:26:45.269Z,99815.94
2018-12-29T01:33:10.747Z,99828.09
2018-12-29T01:39:40.691Z,99840.58
2018-12-29T01:46:06.541Z,99845.66
2018-12-29T01:52:32.392Z,99851.53
2018-12-29T01:58:59.882Z,99857.14
2018-12-29T02:05:27.260Z,99842.20
2018-12-29T02:15:51.208Z,99853.45
2018-12-29T02:21:41.907Z,99848.16
2018-12-29T02:28:08.739Z,99848.22
2018-12-29T02:34:34.345Z,99845.82
2018-12-29T02:41:02.399Z,99839.23
2018-12-29T02:47:31.249Z,99822.75
2018-12-29T02:53:57.070Z,99816.33
2018-12-29T03:00:22.660Z,99826.30
2018-12-29T03:06:48.507Z,99820.25
2018-12-29T03:16:49.659Z,99803.06
2018-12-29T03:22:52.249Z,99792.55
2018-12-29T03:29:18.077Z,99790.11
2018-12-29T03:35:45.649Z,99786.63
2018-12-29T03:42:13.750Z,99789.04
2018-12-29T03:48:40.219Z,99778.36
2018-12-29T03:55:10.442Z,99779.87
2018-12-29T04:01:36.261Z,99780.55
2018-12-29T04:08:24.302Z,99792.05
2018-12-29T04:18:45.457Z,99808.61
2018-12-29T04:24:45.809Z,99815.56
2018-12-29T04:31:14.526Z,99820.58
2018-12-29T04:37:42.430Z,99833.11
2018-12-29T04:44:23.597Z,99839.77
2018-12-29T04:50:51.328Z,99836.09
2018-12-29T04:57:17.996Z,99840.73
2018-12-29T05:03:49.170Z,99840.17
2018-12-29T05:10:56.451Z,99839.20
2018-12-29T05:20:41.242Z,99827.91
2018-12-29T05:26:29.473Z,99825.72
2018-12-29T05:32:58.542Z,99828.59
2018-12-29T05:39:37.491Z,99827.42
2018-12-29T05:46:07.095Z,99827.80
2018-12-29T05:57:12.020Z,99844.92
2018-12-29T06:03:56.942Z,99841.41
2018-12-29T06:10:37.911Z,99839.44
2018-12-29T06:17:05.754Z,99835.02
2018-12-29T06:23:25.994Z,99833.28
2018-12-29T06:29:51.332Z,99832.21
2018-12-29T06:36:19.176Z,99830.92
2018-12-29T06:42:44.786Z,99847.87
2018-12-29T06:49:11.454Z,99844.47
2018-12-29T06:55:38.540Z,99848.33
2018-12-29T07:02:09.308Z,99871.34
2018-12-29T07:08:42.421Z,99889.19
2018-12-29T07:15:12.273Z,99894.89
2018-12-29T07:24:23.735Z,99910.63
2018-12-29T07:38:36.444Z,99908.56
2018-12-29T07:41:07.003Z,99914.48
2018-12-29T07:43:37.634Z,99914.21
2018-12-29T07:46:08.177Z,99918.84
2018-12-29T07:48:39.455Z,99922.71
2018-12-29T07:51:09.965Z,99920.59
2018-12-29T07:53:40.567Z,99927.41
2018-12-29T07:56:11.223Z,99924.84
2018-12-29T07:58:43.024Z,99928.08
2018-12-29T08:01:13.570Z,99927.14
2018-12-29T08:03:44.148Z,99933.13
2018-12-29T08:06:14.714Z,99938.28
2018-12-29T08:08:45.300Z,99936.93
2018-12-29T08:11:15.882Z,99938.05
2018-12-29T08:13:46.453Z,99941.81
2018-12-29T08:16:17.035Z,99941.68
2018-12-29T08:18:47.578Z,99941.13
2018-12-29T08:21:18.811Z,99938.55
2018-12-29T08:23:49.599Z,99934.52
2018-12-29T08:26:20.113Z,99934.34
2018-12-29T08:28:50.668Z,99933.44
2018-12-29T08:31:22.050Z,99934.56
2018-12-29T08:33:52.645Z,99936.59
2018-12-29T08:36:23.220Z,99944.31
2018-12-29T08:38:55.412Z,99941.73
2018-12-29T08:41:29.186Z,99935.23
2018-12-29T08:44:00.545Z,99930.00
2018-12-29T08:46:31.033Z,99925.97
2018-12-29T08:49:01.624Z,99926.25
2018-12-29T08:51:34.570Z,99924.51
2018-12-29T08:54:05.123Z,99925.24
2018-12-29T08:56:37.192Z,99921.69
2018-12-29T08:59:12.888Z,99925.45
2018-12-29T09:01:43.418Z,99925.45
2018-12-29T09:04:14.043Z,99924.55
2018-12-29T09:06:44.654Z,99928.06
2018-12-29T09:09:16.860Z,99934.62
2018-12-29T09:11:48.108Z,99928.24
2018-12-29T09:14:18.772Z,99927.62
2018-12-29T09:16:50.767Z,99923.75
2018-12-29T09:19:27.165Z,99926.16
2018-12-29T09:21:53.714Z,99923.02
2018-12-29T09:24:24.264Z,99923.86
2018-12-29T09:26:54.849Z,99922.04
2018-12-29T09:29:26.408Z,99924.83
2018-12-29T09:31:58.693Z,99928.98
2018-12-29T09:34:29.273Z,99927.52
2018-12-29T09:36:59.855Z,99928.42
2018-12-29T09:39:32.251Z,99920.36
2018-12-29T09:42:02.962Z,99913.73
2018-12-29T09:44:33.570Z,99923.42
2018-12-29T09:47:04.388Z,99921.50
2018-12-29T09:49:34.961Z,99920.11
2018-12-29T09:52:05.491Z,99917.00
2018-12-29T09:54:36.001Z,99916.06
2018-12-29T09:57:06.578Z,99914.24
2018-12-29T09:59:37.094Z,99916.19
2018-12-29T10:02:07.659Z,99916.47
2018-12-29T10:04:38.270Z,99912.42
2018-12-29T10:07:08.760Z,99910.95
2018-12-29T10:09:39.413Z,99900.09
2018-12-29T10:12:09.998Z,99886.08
2018-12-29T10:14:40.596Z,99901.75
2018-12-29T10:17:11.187Z,99901.75
2018-12-29T10:19:42.357Z,99905.55
2018-12-29T10:22:14.627Z,99905.44
2018-12-29T10:24:45.150Z,99903.63
2018-12-29T10:27:16.988Z,99896.61
2018-12-29T10:29:47.576Z,99904.17
2018-12-29T10:32:18.167Z,99904.82
2018-12-29T10:34:48.857Z,99912.95
2018-12-29T10:37:19.579Z,99920.16
2018-12-29T10:39:50.177Z,99914.51
2018-12-29T10:42:20.761Z,99912.13
2018-12-29T10:44:51.357Z,99910.83
2018-12-29T10:47:22.172Z,99910.76
2018-12-29T10:49:52.815Z,99907.88
2018-12-29T10:52:23.423Z,99910.66
2018-12-29T10:54:54.021Z,99914.08
2018-12-29T10:57:25.663Z,99901.63
2018-12-29T10:59:56.240Z,99904.39
2018-12-29T11:02:26.777Z,99897.41
2018-12-29T11:04:57.822Z,99886.25
2018-12-29T11:07:28.405Z,99885.79
2018-12-29T11:09:59.187Z,99868.81
2018-12-29T11:12:32.071Z,99865.93
2018-12-29T11:15:02.607Z,99864.45
2018-12-29T11:17:33.349Z,99863.16
2018-12-29T11:20:03.963Z,99859.59
2018-12-29T11:22:34.536Z,99854.31
2018-12-29T11:25:05.074Z,99849.25
2018-12-29T11:27:35.611Z,99838.73
2018-12-29T11:30:10.481Z,99836.23
2018-12-29T11:32:41.101Z,99826.66
2018-12-29T11:35:11.700Z,99826.55
2018-12-29T11:37:44.162Z,99812.34
2018-12-29T11:40:14.870Z,99808.27
2018-12-29T11:42:45.448Z,99793.72
2018-12-29T11:45:15.969Z,99797.02
2018-12-29T11:47:49.953Z,99803.02
2018-12-29T11:50:19.528Z,99797.12
2018-12-29T11:52:51.969Z,99793.13
2018-12-29T11:55:22.550Z,99786.13
2018-12-29T11:57:53.328Z,99778.73
2018-12-29T12:00:23.878Z,99776.14
2018-12-29T12:02:55.945Z,99765.35
2018-12-29T12:05:27.171Z,99761.02
2018-12-29T12:07:57.769Z,99752.17
2018-12-29T12:10:28.304Z,99748.30
2018-12-29T12:12:58.835Z,99742.94
2018-12-29T12:15:29.516Z,99725.74
2018-12-29T12:18:00.932Z,99710.41
2018-12-29T12:20:32.370Z,99716.78
2018-12-29T12:23:02.932Z,99719.83
2018-12-29T12:25:36.627Z,99720.00
2018-12-29T12:28:07.587Z,99727.58
2018-12-29T12:30:38.218Z,99734.76
2018-12-29T12:33:10.278Z,99729.62
2018-12-29T12:35:43.358Z,99728.30
2018-12-29T12:38:14.566Z,99716.50
2018-12-29T12:40:45.102Z,99717.79
2018-12-29T12:43:15.813Z,99704.41
2018-12-29T12:45:48.090Z,99712.71
2018-12-29T12:48:18.663Z,99716.21
2018-12-29T12:50:49.517Z,99724.34
2018-12-29T12:53:20.059Z,99735.31
2018-12-29T12:55:50.747Z,99734.22
2018-12-29T12:58:21.675Z,99726.98
2018-12-29T13:00:55.551Z,99727.20
2018-12-29T13:03:26.389Z,99726.34
2018-12-29T13:05:58.458Z,99722.50
2018-12-29T13:08:29.053Z,99722.98
2018-12-29T13:10:59.602Z,99732.80
2018-12-29T13:13:30.157Z,99756.33
2018-12-29T13:16:01.046Z,99761.88
2018-12-29T13:18:31.749Z,99769.51
2018-12-29T13:21:03.052Z,99776.08
2018-12-29T13:23:34.303Z,99772.01
2018-12-29T13:26:05.143Z,99771.29
2018-12-29T13:28:35.742Z,99763.42
2018-12-29T13:31:06.329Z,99761.22
2018-12-29T13:33:37.000Z,99755.04
2018-12-29T13:36:07.936Z,99747.84
2018-12-29T13:38:38.496Z,99742.50
2018-12-29T13:41:09.067Z,99740.38
2018-12-29T13:43:39.601Z,99740.57
2018-12-29T13:46:10.184Z,99745.36
2018-12-29T13:48:40.726Z,99747.48
2018-12-29T13:51:11.265Z,99746.56
2018-12-29T13:53:41.874Z,99755.79
2018-12-29T13:56:12.465Z,99758.06
2018-12-29T13:58:43.689Z,99763.34
2018-12-29T14:01:14.208Z,99770.98
2018-12-29T14:03:44.842Z,99765.98
2018-12-29T14:06:15.439Z,99758.44
2018-12-29T14:08:45.935Z,99757.06
2018-12-29T14:11:17.089Z,99756.88
2018-12-29T14:13:47.644Z,99760.10
2018-12-29T14:16:18.232Z,99746.61
2018-12-29T14:18:48.843Z,99731.03
2018-12-29T14:21:20.482Z,99731.28
2018-12-29T14:23:51.199Z,99726.29
2018-12-29T14:26:21.948Z,99707.83
2018-12-29T14:28:52.463Z,99713.88
2018-12-29T14:31:24.799Z,99713.05
2018-12-29T14:33:55.365Z,99699.16
2018-12-29T14:36:26.009Z,99681.41
2018-12-29T14:38:56.576Z,99665.57
2018-12-29T14:41:27.348Z,99689.37
2018-12-29T14:43:57.910Z,99679.69
2018-12-29T14:46:28.527Z,99678.86
2018-12-29T14:48:59.303Z,99682.39
2018-12-29T14:51:29.924Z,99678.86
2018-12-29T14:54:00.527Z,99669.16
2018-12-29T14:56:31.047Z,99653.77
2018-12-29T14:59:03.066Z,99646.02
2018-12-29T15:01:33.855Z,99636.86
2018-12-29T15:04:06.448Z,99622.19
2018-12-29T15:06:37.049Z,99603.84
2018-12-29T15:09:08.726Z,99611.85
2018-12-29T15:11:39.346Z,99619.44
2018-12-29T15:14:12.607Z,99619.19
2018-12-29T15:16:45.189Z,99629.52
2018-12-29T15:19:15.755Z,99640.72
2018-12-29T15:21:46.369Z,99656.33
2018-12-29T15:24:16.934Z,99669.97
2018-12-29T15:26:47.535Z,99696.72
2018-12-29T15:29:22.888Z,99717.76
2018-12-29T15:31:53.512Z,99717.76
2018-12-29T15:34:24.102Z,99711.04
2018-12-29T15:36:54.748Z,99716.09
2018-12-29T15:39:25.605Z,99707.70
2018-12-29T15:41:56.168Z,99695.25
2018-12-29T15:44:26.764Z,99688.16
2018-12-29T15:46:57.743Z,99678.12
2018-12-29T15:49:28.498Z,99681.98
2018-12-29T15:51:59.070Z,99683.11
2018-12-29T15:54:29.600Z,99681.36
2018-12-29T15:57:00.233Z,99693.81
2018-12-29T15:59:31.367Z,99680.41
2018-12-29T16:02:01.937Z,99676.08
2018-12-29T16:04:32.540Z,99670.08
2018-12-29T16:07:03.076Z,99658.11
2018-12-29T16:09:34.341Z,99646.95
2018-12-29T16:12:04.920Z,99630.41
2018-12-29T16:14:35.743Z,99639.08
2018-12-29T16:17:06.455Z,99638.20
2018-12-29T16:19:38.038Z,99644.28
2018-12-29T16:22:08.880Z,99644.39
2018-12-29T16:24:39.421Z,99637.94
2018-12-29T16:27:09.992Z,99645.31
2018-12-29T16:29:40.643Z,99631.48
2018-12-29T16:32:11.221Z,99620.89
2018-12-29T16:34:41.804Z,99609.98
2018-12-29T16:37:12.419Z,99593.20
2018-12-29T16:39:43.438Z,99588.41
2018-12-29T16:42:14.077Z,99594.66
2018-12-29T16:44:44.599Z,99611.62
2018-12-29T16:47:15.185Z,99615.13
2018-12-29T16:49:45.729Z,99604.38
2018-12-29T16:52:16.884Z,99611.30
2018-12-29T16:54:47.457Z,99630.59
2018-12-29T16:57:18.099Z,99628.00
2018-12-29T16:59:48.707Z,99619.13
2018-12-29T17:02:19.745Z,99612.55
2018-12-29T17:04:50.321Z,99603.17
2018-12-29T17:07:21.073Z,99605.43
2018-12-29T17:09:51.606Z,99609.47
2018-12-29T17:12:22.577Z,99598.42
2018-12-29T17:14:53.118Z,99595.06
2018-12-29T17:17:23.814Z,99599.52
2018-12-29T17:19:54.357Z,99603.39
2018-12-29T17:22:24.892Z,99606.48
2018-12-29T17:25:02.612Z,99599.84
2018-12-29T17:27:33.166Z,99594.85
2018-12-29T17:30:03.884Z,99592.72
2018-12-29T17:32:34.449Z,99589.30
2018-12-29T17:35:05.083Z,99595.39
2018-12-29T17:37:36.254Z,99596.10
2018-12-29T17:40:06.902Z,99591.14
2018-12-29T17:42:37.493Z,99584.68
2018-12-29T17:45:08.812Z,99578.59
2018-12-29T17:47:39.435Z,99583.59
2018-12-29T17:50:09.986Z,99571.55
2018-12-29T17:52:43.388Z,99572.84
2018-12-29T17:55:14.564Z,99577.67
2018-12-29T17:57:48.065Z,99573.05
2018-12-29T18:00:19.305Z,99579.30
2018-12-29T18:02:49.891Z,99578.02
2018-12-29T18:05:20.449Z,99578.02
2018-12-29T18:07:51.101Z,99581.17
2018-12-29T18:10:21.646Z,99581.89
2018-12-29T18:12:52.201Z,99581.55
2018-12-29T18:15:22.799Z,99572.17
2018-12-29T18:17:53.384Z,99581.96
2018-12-29T18:20:23.950Z,99583.13
2018-12-29T18:22:54.490Z,99588.52
2018-12-29T18:25:25.123Z,99577.84
2018-12-29T18:27:55.913Z,99580.00
2018-12-29T18:30:26.489Z,99563.91
2018-12-29T18:32:57.061Z,99558.90
2018-12-29T18:35:27.593Z,99563.48
2018-12-29T18:37:58.772Z,99556.84
2018-12-29T18:40:29.368Z,99547.17
2018-12-29T18:42:59.917Z,99544.37
2018-12-29T18:45:30.890Z,99547.12
2018-12-29T18:48:01.423Z,99548.75
2018-12-29T18:50:32.047Z,99545.00
2018-12-29T18:53:02.821Z,99543.28
2018-12-29T18:55:33.410Z,99545.70
2018-12-29T18:58:03.949Z,99547.25
2018-12-29T19:00:34.599Z,99539.77
2018-12-29T19:03:05.209Z,99534.14
2018-12-29T19:05:35.758Z,99537.19
2018-12-29T19:08:06.350Z,99518.72
2018-12-29T19:10:36.905Z,99509.88
2018-12-29T19:13:11.806Z,99496.28
2018-12-29T19:15:42.568Z,99502.80
2018-12-29T19:18:13.145Z,99508.84
2018-12-29T19:20:44.564Z,99503.81
2018-12-29T19:23:15.680Z,99499.70
2018-12-29T19:25:46.616Z,99498.19
2018-12-29T19:28:17.852Z,99485.97
2018-12-29T19:30:49.556Z,99485.04
2018-12-29T19:33:20.529Z,99506.09
2018-12-29T19:35:51.437Z,99522.31
2018-12-29T19:38:25.603Z,99509.53
2018-12-29T19:40:56.160Z,99514.13
2018-12-29T19:43:27.061Z,99521.17
2018-12-29T19:45:57.604Z,99524.12
2018-12-29T19:48:28.158Z,99521.20
2018-12-29T19:50:59.452Z,99519.52
2018-12-29T19:53:30.325Z,99530.23
2018-12-29T19:56:00.959Z,99541.73
2018-12-29T19:58:32.155Z,99531.15
2018-12-29T20:01:02.771Z,99513.84
2018-12-29T20:03:34.047Z,99528.41
2018-12-29T20:06:11.159Z,99513.63
2018-12-29T20:08:36.924Z,99515.48
2018-12-29T20:11:07.494Z,99527.27
2018-12-29T20:13:38.330Z,99530.08
2018-12-29T20:16:09.900Z,99508.47
2018-12-29T20:18:40.542Z,99511.39
2018-12-29T20:21:11.267Z,99518.83
2018-12-29T20:23:41.878Z,99513.72
2018-12-29T20:26:12.471Z,99508.55
2018-12-29T20:28:43.070Z,99503.71
2018-12-29T20:31:14.569Z,99499.52
2018-12-29T20:33:45.157Z,99507.64
2018-12-29T20:36:15.706Z,99504.93
2018-12-29T20:38:46.325Z,99498.83
2018-12-29T20:41:16.892Z,99490.61
2018-12-29T20:43:47.528Z,99501.78
2018-12-29T20:46:18.175Z,99502.49
2018-12-29T20:48:48.714Z,99500.50
2018-12-29T20:51:20.081Z,99489.34
2018-12-29T20:53:50.960Z,99491.09
2018-12-29T20:56:21.497Z,99485.83
2018-12-29T20:58:52.101Z,99486.53
2018-12-29T21:01:22.609Z,99495.36
2018-12-29T21:03:53.315Z,99494.80
2018-12-29T21:06:24.059Z,99483.38
2018-12-29T21:08:54.815Z,99494.06
2018-12-29T21:11:26.593Z,99483.61
2018-12-29T21:14:00.099Z,99474.81
2018-12-29T21:16:30.613Z,99481.13
2018-12-29T21:19:01.217Z,99474.66
2018-12-29T21:21:31.767Z,99461.63
2018-12-29T21:24:03.660Z,99476.33
2018-12-29T21:26:34.251Z,99460.93
2018-12-29T21:29:05.085Z,99468.20
2018-12-29T21:31:36.342Z,99452.67
2018-12-29T21:34:06.968Z,99457.84
2018-12-29T21:36:37.517Z,99457.28
2018-12-29T21:39:08.934Z,99458.07
2018-12-29T21:41:39.492Z,99454.80
2018-12-29T21:44:10.040Z,99461.71
2018-12-29T21:46:40.615Z,99432.56
2018-12-29T21:49:11.194Z,99433.95
2018-12-29T21:51:41.766Z,99441.48
2018-12-29T21:54:12.366Z,99446.28
2018-12-29T21:56:42.861Z,99447.80
2018-12-29T21:59:13.441Z,99440.53
2018-12-29T22:01:44.673Z,99439.12
2018-12-29T22:04:15.275Z,99434.87
2018-12-29T22:06:45.817Z,99440.19
2018-12-29T22:09:16.399Z,99429.01
2018-12-29T22:11:47.647Z,99462.55
2018-12-29T22:14:18.238Z,99455.00
2018-12-29T22:16:49.038Z,99446.64
2018-12-29T22:19:22.535Z,99442.30
2018-12-29T22:21:53.131Z,99450.52
2018-12-29T22:24:24.712Z,99437.91
2018-12-29T22:26:55.247Z,99453.27
2018-12-29T22:29:26.542Z,99455.08
2018-12-29T22:31:57.248Z,99463.77
2018-12-29T22:34:27.810Z,99453.55
2018-12-29T22:36:58.349Z,99465.80
2018-12-29T22:39:29.330Z,99474.70
2018-12-29T22:41:59.925Z,99489.27
2018-12-29T22:44:30.405Z,99474.02
2018-12-29T22:47:01.316Z,99466.72
2018-12-29T22:49:33.081Z,99469.41
2018-12-29T22:52:03.638Z,99466.80
2018-12-29T22:54:36.068Z,99478.92
2018-12-29T22:57:06.581Z,99468.80
2018-12-29T22:59:37.175Z,99474.55
2018-12-29T23:02:08.512Z,99485.13
2018-12-29T23:04:39.090Z,99466.80
2018-12-29T23:07:13.395Z,99473.27
2018-12-29T23:09:43.991Z,99474.55
2018-12-29T23:12:14.538Z,99468.94
2018-12-29T23:14:45.084Z,99464.84
2018-12-29T23:17:18.856Z,99467.42
2018-12-29T23:19:49.372Z,99469.45
2018-12-29T23:22:22.547Z,99461.11
2018-12-29T23:24:53.031Z,99471.82
2018-12-29T23:27:23.583Z,99463.83
2018-12-29T23:29:54.240Z,99468.20
2018-12-29T23:32:24.778Z,99457.28
2018-12-29T23:34:55.321Z,99442.83
2018-12-29T23:37:25.890Z,99460.94
2018-12-29T23:39:57.258Z,99440.75
2018-12-29T23:42:27.842Z,99448.52
2018-12-29T23:44:58.413Z,99453.09
2018-12-29T23:47:29.993Z,99463.36
2018-12-29T23:50:00.656Z,99456.39
2018-12-29T23:52:31.200Z,99457.12
2018-12-29T23:55:01.850Z,99464.20
2018-12-29T23:57:32.372Z,99448.91
